Hauptseite
METAR-TAF:

METAR-TAF

Flughäfen :

Flughafen Dortmund

Dortmund, Deutschland

Breite: 51-31N, Länge: 007-37E, Höhe: 127 m

Beobachtung

Neuester Wetterbericht von vor 30 Minuten, um 03:50 UTC
Wind 8 kt aus Süd
Temperatur 6°C
Luftfeuchtigkeit 87%
Luftdruck 1022 hPa
Sichtweite 10 km oder mehr
keine Wolken unter 1500 m und keine Kumulonimbus oder Gewitterwolken

METAR: EDLW 180350Z 17008KT CAVOK 06/04 Q1022

Zeit: 06:20 (04:20 UTC)

Prognose

Neuester Wetterbericht von vor 1 Stunde und 0 Minuten, um 03:20 UTC
Gültige Prognose vom 18 um 04 UTC bis 18 um 24 UTC
Wind 9 kt aus Süd
Sichtweite 10 km oder mehr
keine Wolken unter 1500 m und keine Kumulonimbus oder Gewitterwolken

TAF: EDLW 180320Z 1804/1824 18009KT CAVOK

Wetterbeobachtungen und Prognosen von mehr als 4000 Flughäfen (METAR und TAF Bericht).

Die verfügbaren Stationen werden durch gelbe und rote Markierungen auf der Karte dargestellt.

Führen Sie die Maus auf sie, um den Namen der Station zu sehen.

Darauf klicken, um die Beobachtung von Wetterbeobachtungen und Prognosen zu sehen.

Um die Karte zu ändern : klicken Sie auf den grünen Tasten mit einem schwarzen Kreuz Zum Vergrößern, auf den grünen Button mit einem Gedankenstrich zu verkleinern, oder auf die grünen Pfeile für benachbarte Karten.


METAR-TAF: